Time;durP1;ratioP1;P1;durP2;ratioP2;P2;SDS_P1;SDS_P2;PMS_P1;PMS_P2;Temp;Humidity;BMP_temperature;BMP_pressure;BME280_temperature;BME280_humidity;BME280_pressure;Samples;Min_cycle;Max_cycle;Signal;HPM_P1;HPM_P2
2022/03/16 00:00:00;;;;;;;53.22;29.92;;;6.10;99.90;;;;;;5077222;28;20047;-62
2022/03/16 00:02:28;;;;;;;56.58;31.08;;;6.10;99.90;;;;;;5095652;28;20462;-62
2022/03/16 00:04:56;;;;;;;55.33;31.30;;;6.10;99.90;;;;;;5077738;28;20117;-62
2022/03/16 00:07:23;;;;;;;58.80;31.73;;;6.00;99.90;;;;;;5094668;28;20048;-61
2022/03/16 00:09:51;;;;;;;50.42;30.95;;;6.00;99.90;;;;;;5095450;28;20488;-62
2022/03/16 00:12:18;;;;;;;58.85;32.70;;;5.90;99.90;;;;;;5077733;28;20059;-61
2022/03/16 00:14:47;;;;;;;64.70;32.92;;;5.90;99.90;;;;;;5094618;28;20048;-61
2022/03/16 00:17:14;;;;;;;55.95;31.60;;;5.90;99.90;;;;;;5095412;28;20048;-61
2022/03/16 00:19:41;;;;;;;56.15;33.72;;;5.80;99.90;;;;;;5077113;28;20077;-62
2022/03/16 00:22:08;;;;;;;55.10;30.25;;;5.80;99.90;;;;;;5077536;28;20111;-63
2022/03/16 00:24:35;;;;;;;56.70;31.75;;;5.80;99.90;;;;;;5077222;28;20056;-62
2022/03/16 00:27:02;;;;;;;50.08;30.65;;;5.80;99.90;;;;;;5076785;28;20721;-62
2022/03/16 00:29:29;;;;;;;60.75;32.35;;;5.80;99.90;;;;;;5094554;28;20044;-62
2022/03/16 00:31:59;;;;;;;60.50;32.25;;;5.70;99.90;;;;;;5095198;28;20047;-61
2022/03/16 00:34:26;;;;;;;60.05;32.42;;;5.70;99.90;;;;;;5094201;28;20048;-61
2022/03/16 00:36:53;;;;;;;62.35;33.30;;;5.70;99.90;;;;;;5095099;28;20052;-61
2022/03/16 00:39:19;;;;;;;68.25;33.03;;;5.70;99.90;;;;;;5094989;28;20477;-61
2022/03/16 00:41:46;;;;;;;60.53;32.67;;;5.70;99.90;;;;;;5094419;28;20052;-61
2022/03/16 00:44:13;;;;;;;57.92;31.85;;;5.60;99.90;;;;;;5094576;28;20048;-63
2022/03/16 00:46:41;;;;;;;60.13;33.15;;;5.60;99.90;;;;;;5094757;28;20055;-63
2022/03/16 00:49:09;;;;;;;58.20;31.77;;;5.60;99.90;;;;;;5072283;28;20048;-63
2022/03/16 00:51:36;;;;;;;61.97;32.63;;;5.50;99.90;;;;;;5074760;28;20101;-62
2022/03/16 00:54:03;;;;;;;63.28;33.58;;;5.50;99.90;;;;;;5074542;28;20056;-63
2022/03/16 00:56:30;;;;;;;59.50;32.72;;;5.50;99.90;;;;;;5056186;28;20053;-63
2022/03/16 00:58:56;;;;;;;56.38;33.08;;;5.50;99.90;;;;;;5070459;28;20109;-63
2022/03/16 01:01:23;;;;;;;59.80;34.28;;;5.40;99.90;;;;;;5094534;28;20045;-62
2022/03/16 01:03:50;;;;;;;56.55;32.25;;;5.40;99.90;;;;;;5093898;28;20381;-65
2022/03/16 01:06:20;;;;;;;61.72;33.92;;;5.40;99.90;;;;;;5076254;28;20143;-65
2022/03/16 01:08:47;;;;;;;65.47;34.47;;;5.40;99.90;;;;;;5075507;28;20155;-63
2022/03/16 01:11:14;;;;;;;62.90;35.95;;;5.40;99.90;;;;;;5075134;28;20109;-62
2022/03/16 01:13:43;;;;;;;64.28;35.00;;;5.40;99.90;;;;;;5093976;28;20483;-62
2022/03/16 01:16:10;;;;;;;61.25;34.17;;;5.40;99.90;;;;;;5093037;28;20478;-62
2022/03/16 01:18:37;;;;;;;65.05;33.60;;;5.40;99.90;;;;;;5093929;28;20051;-63
2022/03/16 01:21:05;;;;;;;65.20;35.75;;;5.40;99.90;;;;;;5075860;28;20477;-62
2022/03/16 01:23:35;;;;;;;66.57;33.90;;;5.40;99.90;;;;;;5074904;28;20128;-63
2022/03/16 01:26:02;;;;;;;56.78;32.35;;;5.40;99.90;;;;;;5075643;28;20105;-63
2022/03/16 01:28:29;;;;;;;58.60;32.80;;;5.40;99.90;;;;;;5093279;28;20056;-63
2022/03/16 01:30:57;;;;;;;61.47;32.75;;;5.40;99.90;;;;;;5093183;28;20052;-62
2022/03/16 01:33:24;;;;;;;56.17;34.22;;;5.40;99.90;;;;;;5093763;28;20075;-63
2022/03/16 01:35:51;;;;;;;57.08;34.03;;;5.40;99.90;;;;;;5075166;28;20044;-63
2022/03/16 01:38:18;;;;;;;59.92;33.17;;;5.30;99.90;;;;;;5074707;28;20047;-62
2022/03/16 01:40:46;;;;;;;62.92;33.08;;;5.30;99.90;;;;;;5093155;28;20462;-62
2022/03/16 01:43:13;;;;;;;61.70;33.30;;;5.30;99.90;;;;;;5092913;28;20059;-62
2022/03/16 01:45:46;;;;;;;55.00;33.15;;;5.30;99.90;;;;;;5074065;28;20372;-62
2022/03/16 01:48:13;;;;;;;63.40;34.80;;;5.20;99.90;;;;;;5075262;28;20056;-62
2022/03/16 01:50:40;;;;;;;64.13;35.55;;;5.10;99.90;;;;;;5093190;28;20048;-62
2022/03/16 01:53:07;;;;;;;62.60;34.30;;;5.10;99.90;;;;;;5074718;28;20056;-62
2022/03/16 01:55:34;;;;;;;61.58;35.70;;;5.10;99.90;;;;;;5093079;28;20089;-62
2022/03/16 01:58:03;;;;;;;57.92;32.28;;;5.00;99.90;;;;;;5071521;28;20098;-62
2022/03/16 02:00:29;;;;;;;60.03;32.88;;;5.00;99.90;;;;;;5053662;28;20052;-61
2022/03/16 02:02:57;;;;;;;64.00;32.97;;;5.00;99.90;;;;;;5055075;28;20451;-61
2022/03/16 02:05:24;;;;;;;67.78;34.17;;;4.90;99.90;;;;;;5072053;28;20048;-62
2022/03/16 02:07:51;;;;;;;56.10;33.03;;;4.80;99.90;;;;;;5072724;28;20194;-62
2022/03/16 02:10:18;;;;;;;53.63;33.33;;;4.80;99.90;;;;;;5054404;28;20565;-61
2022/03/16 02:12:47;;;;;;;58.60;34.03;;;4.80;99.90;;;;;;5079881;28;20048;-62
2022/03/16 02:15:15;;;;;;;63.70;34.67;;;4.80;99.90;;;;;;5092794;28;20113;-62
2022/03/16 02:17:42;;;;;;;62.55;34.85;;;4.80;99.90;;;;;;5074601;28;20048;-62
2022/03/16 02:20:10;;;;;;;61.70;32.95;;;4.80;99.90;;;;;;5074326;28;20059;-62
2022/03/16 02:22:38;;;;;;;55.67;33.22;;;4.80;99.90;;;;;;5075074;28;20052;-62
2022/03/16 02:25:09;;;;;;;59.72;33.83;;;4.80;99.90;;;;;;5092442;28;20052;-62
2022/03/16 02:27:40;;;;;;;65.30;35.30;;;4.80;99.90;;;;;;5070481;28;20115;-62
2022/03/16 02:30:09;;;;;;;63.28;34.28;;;4.70;99.90;;;;;;5072478;28;20048;-62
2022/03/16 02:32:35;;;;;;;59.13;34.42;;;4.70;99.90;;;;;;5054671;28;20052;-62
2022/03/16 02:35:02;;;;;;;51.92;31.90;;;4.70;99.90;;;;;;5071873;28;20129;-62
2022/03/16 02:37:29;;;;;;;59.97;34.00;;;4.60;99.90;;;;;;5072619;28;20048;-62
2022/03/16 02:39:56;;;;;;;58.72;34.95;;;4.60;99.90;;;;;;5072362;28;20162;-63
2022/03/16 02:42:25;;;;;;;61.45;35.10;;;4.60;99.90;;;;;;5091797;28;20048;-62
2022/03/16 02:44:52;;;;;;;56.05;33.00;;;4.50;99.90;;;;;;5092384;28;20052;-62
2022/03/16 02:47:18;;;;;;;61.88;34.53;;;4.50;99.90;;;;;;5092552;28;20546;-62
2022/03/16 02:49:46;;;;;;;62.33;34.13;;;4.40;99.90;;;;;;5073800;28;20044;-62
2022/03/16 02:52:13;;;;;;;56.83;32.80;;;4.30;99.90;;;;;;5074580;28;20106;-62
2022/03/16 02:54:40;;;;;;;51.10;30.88;;;4.40;99.90;;;;;;5073809;28;20522;-62
2022/03/16 02:57:07;;;;;;;58.33;33.75;;;4.30;99.90;;;;;;5091928;28;20105;-62
2022/03/16 02:59:36;;;;;;;61.58;33.72;;;4.30;99.90;;;;;;5096556;28;20052;-62
2022/03/16 03:02:03;;;;;;;68.40;36.55;;;4.30;99.90;;;;;;5095682;28;20105;-62
2022/03/16 03:04:30;;;;;;;66.63;34.83;;;4.30;99.90;;;;;;5096775;28;20108;-62
2022/03/16 03:06:57;;;;;;;60.92;33.60;;;4.30;99.90;;;;;;5078410;28;20093;-62
2022/03/16 03:09:25;;;;;;;67.65;35.42;;;4.30;99.90;;;;;;5077926;28;20055;-62
2022/03/16 03:11:52;;;;;;;71.13;34.80;;;4.20;99.90;;;;;;5095735;28;20131;-62
2022/03/16 03:14:19;;;;;;;60.05;34.65;;;4.20;99.90;;;;;;5096275;28;20106;-62
2022/03/16 03:16:47;;;;;;;67.75;36.10;;;4.20;99.90;;;;;;5076921;28;20487;-62
2022/03/16 03:19:14;;;;;;;62.20;36.22;;;4.20;99.90;;;;;;5078166;28;20138;-62
2022/03/16 03:21:41;;;;;;;56.13;32.60;;;4.10;99.90;;;;;;5096096;28;20488;-61
2022/03/16 03:24:08;;;;;;;60.45;33.13;;;4.10;99.90;;;;;;5074092;28;20118;-61
2022/03/16 03:26:35;;;;;;;68.78;36.67;;;4.10;99.90;;;;;;5075574;28;20048;-62
2022/03/16 03:29:02;;;;;;;53.67;33.25;;;4.10;99.90;;;;;;5075441;28;20113;-61
2022/03/16 03:31:29;;;;;;;58.35;34.28;;;4.10;99.90;;;;;;5073878;28;20060;-61
2022/03/16 03:33:57;;;;;;;62.92;35.80;;;4.00;99.90;;;;;;5076063;28;20454;-63
2022/03/16 03:36:24;;;;;;;59.78;34.90;;;4.00;99.90;;;;;;5075594;28;20045;-62
2022/03/16 03:38:51;;;;;;;54.42;33.28;;;4.20;99.90;;;;;;5073966;28;20052;-62
2022/03/16 03:41:18;;;;;;;53.85;33.40;;;4.00;99.90;;;;;;5074672;28;20377;-62
2022/03/16 03:43:45;;;;;;;62.70;34.33;;;3.90;99.90;;;;;;5074711;28;20415;-60
2022/03/16 03:46:12;;;;;;;77.13;37.22;;;3.90;99.90;;;;;;5075399;28;20454;-61
2022/03/16 03:48:38;;;;;;;61.85;35.13;;;3.90;99.90;;;;;;5075337;28;20114;-61
2022/03/16 03:51:07;;;;;;;63.88;35.60;;;3.90;99.90;;;;;;5073348;28;20455;-61
2022/03/16 03:53:34;;;;;;;63.00;33.60;;;3.80;99.90;;;;;;5074036;28;20106;-61
2022/03/16 03:56:01;;;;;;;60.28;33.58;;;3.90;99.90;;;;;;5075094;28;20512;-61
2022/03/16 03:58:28;;;;;;;62.55;32.58;;;3.80;99.90;;;;;;5074679;28;20052;-62
2022/03/16 04:00:54;;;;;;;65.88;35.42;;;3.80;99.90;;;;;;5075149;28;20056;-61
2022/03/16 04:03:21;;;;;;;70.30;38.75;;;3.80;99.90;;;;;;5075575;28;20056;-61
2022/03/16 04:05:48;;;;;;;57.33;31.45;;;3.80;99.90;;;;;;5074300;28;20048;-61
2022/03/16 04:08:16;;;;;;;64.63;35.80;;;3.70;99.90;;;;;;5075004;28;20572;-61
2022/03/16 04:10:43;;;;;;;61.92;36.55;;;3.70;99.90;;;;;;5074051;28;20492;-62
2022/03/16 04:13:10;;;;;;;57.33;32.28;;;3.70;99.90;;;;;;5074502;28;20052;-62
2022/03/16 04:15:37;;;;;;;65.78;33.72;;;3.70;99.90;;;;;;5075131;28;20102;-62
2022/03/16 04:18:04;;;;;;;62.60;34.10;;;3.70;99.90;;;;;;5074989;28;20040;-62
2022/03/16 04:20:31;;;;;;;72.28;35.50;;;3.60;99.90;;;;;;5074402;28;20056;-62
2022/03/16 04:22:57;;;;;;;64.45;35.13;;;3.60;99.90;;;;;;5074668;28;20056;-61
2022/03/16 04:25:26;;;;;;;68.78;36.08;;;3.60;99.90;;;;;;5090611;28;20052;-62
2022/03/16 04:27:53;;;;;;;59.50;33.40;;;3.60;99.90;;;;;;5094459;28;20044;-62
2022/03/16 04:30:20;;;;;;;62.53;33.83;;;3.60;99.90;;;;;;5073480;28;20143;-61
2022/03/16 04:32:51;;;;;;;62.80;34.60;;;3.50;99.90;;;;;;5074642;28;20492;-61
2022/03/16 04:35:18;;;;;;;61.00;35.53;;;3.50;99.90;;;;;;5074437;28;20052;-61
2022/03/16 04:37:45;;;;;;;59.30;33.40;;;3.50;99.90;;;;;;5056589;28;20546;-61
2022/03/16 04:40:13;;;;;;;62.45;35.85;;;3.50;99.90;;;;;;5056232;28;20060;-62
2022/03/16 04:42:41;;;;;;;61.70;34.58;;;3.50;99.90;;;;;;5077980;28;20108;-61
2022/03/16 04:45:09;;;;;;;72.78;35.42;;;3.60;99.90;;;;;;5094514;28;20523;-61
2022/03/16 04:47:36;;;;;;;63.15;34.75;;;3.50;99.90;;;;;;5094023;28;20055;-62
2022/03/16 04:50:04;;;;;;;62.10;36.95;;;3.60;99.90;;;;;;5067961;28;20056;-62
2022/03/16 04:52:31;;;;;;;74.32;37.58;;;3.70;99.90;;;;;;5065197;28;20097;-62
2022/03/16 04:54:58;;;;;;;66.38;36.90;;;3.70;99.90;;;;;;5088502;28;20407;-62
2022/03/16 04:57:24;;;;;;;64.20;37.00;;;3.70;99.90;;;;;;5086743;28;20044;-62
2022/03/16 04:59:53;;;;;;;64.07;36.13;;;3.70;99.90;;;;;;5072626;28;20066;-62
2022/03/16 05:02:19;;;;;;;76.00;40.17;;;3.60;99.90;;;;;;5086415;28;20105;-63
2022/03/16 05:04:46;;;;;;;63.20;34.70;;;3.70;99.90;;;;;;5087081;28;20487;-62
2022/03/16 05:07:13;;;;;;;81.57;39.13;;;3.70;99.90;;;;;;5068236;28;20582;-61
2022/03/16 05:09:40;;;;;;;72.85;37.10;;;3.70;99.90;;;;;;5071250;28;20125;-62
2022/03/16 05:12:08;;;;;;;72.03;37.28;;;3.70;99.90;;;;;;5087107;28;20123;-61
2022/03/16 05:14:35;;;;;;;69.57;38.85;;;4.70;99.90;;;;;;5085461;28;20052;-62
2022/03/16 05:17:04;;;;;;;76.13;38.00;;;3.80;99.90;;;;;;5084057;28;20505;-61
2022/03/16 05:19:31;;;;;;;68.03;37.13;;;3.80;99.90;;;;;;5091329;28;20043;-62
2022/03/16 05:21:58;;;;;;;77.93;38.88;;;3.90;99.90;;;;;;5086080;28;20053;-63
2022/03/16 05:24:26;;;;;;;85.53;41.30;;;3.90;99.90;;;;;;5083508;28;20052;-61
2022/03/16 05:26:53;;;;;;;76.25;39.15;;;3.90;99.90;;;;;;5066616;28;20063;-62
2022/03/16 05:29:20;;;;;;;77.20;39.45;;;3.90;99.90;;;;;;5090837;28;20395;-61
2022/03/16 05:31:47;;;;;;;88.82;44.50;;;3.90;99.90;;;;;;5073624;28;20055;-61
2022/03/16 05:34:15;;;;;;;64.00;35.85;;;3.90;99.90;;;;;;5086185;28;20051;-62
2022/03/16 05:36:42;;;;;;;77.88;39.22;;;3.90;99.90;;;;;;5081761;28;20105;-62
2022/03/16 05:39:09;;;;;;;81.82;38.28;;;3.90;99.90;;;;;;5072133;28;20048;-62
2022/03/16 05:41:36;;;;;;;71.63;38.72;;;4.00;99.90;;;;;;5062653;28;20045;-62
2022/03/16 05:44:02;;;;;;;72.65;38.83;;;4.00;99.90;;;;;;5071464;28;20488;-62
2022/03/16 05:46:29;;;;;;;72.75;38.92;;;4.10;99.90;;;;;;5066515;28;20056;-61
2022/03/16 05:48:56;;;;;;;73.97;38.45;;;4.10;99.90;;;;;;5072201;28;20052;-62
2022/03/16 05:51:24;;;;;;;69.20;37.53;;;4.10;99.90;;;;;;5072389;28;20064;-62
2022/03/16 05:53:51;;;;;;;71.68;37.67;;;4.20;99.90;;;;;;5071905;28;20059;-63
2022/03/16 05:56:18;;;;;;;73.75;37.30;;;4.20;99.90;;;;;;5063793;28;20044;-63
2022/03/16 05:58:45;;;;;;;65.93;36.70;;;4.20;99.90;;;;;;5079897;28;20044;-63
2022/03/16 06:01:12;;;;;;;71.80;35.63;;;4.30;99.90;;;;;;5069069;28;20064;-62
2022/03/16 06:03:39;;;;;;;63.78;37.08;;;4.30;99.90;;;;;;5054681;28;20044;-62
2022/03/16 06:06:06;;;;;;;67.80;37.03;;;4.30;99.90;;;;;;5057517;28;20094;-63
2022/03/16 06:08:34;;;;;;;62.67;37.03;;;4.30;99.90;;;;;;5063087;28;20093;-62
2022/03/16 06:11:01;;;;;;;60.10;34.28;;;4.40;99.90;;;;;;5085616;28;20442;-62
2022/03/16 06:13:28;;;;;;;64.50;35.90;;;4.40;99.90;;;;;;5083378;28;20102;-62
2022/03/16 06:15:55;;;;;;;63.20;34.55;;;4.60;99.90;;;;;;5084595;28;20043;-62
2022/03/16 06:18:22;;;;;;;62.35;33.47;;;4.60;99.90;;;;;;5087058;28;20044;-62
2022/03/16 06:20:48;;;;;;;56.30;32.00;;;4.60;99.90;;;;;;5083802;28;20510;-62
2022/03/16 06:23:15;;;;;;;57.45;32.83;;;4.60;99.90;;;;;;5086356;28;20048;-62
2022/03/16 06:25:43;;;;;;;52.38;31.65;;;4.70;99.90;;;;;;5065889;28;20056;-62
2022/03/16 06:28:10;;;;;;;52.55;29.85;;;4.70;99.90;;;;;;5084426;28;20085;-62
2022/03/16 06:30:37;;;;;;;52.13;31.65;;;4.80;99.90;;;;;;5085414;28;20082;-62
2022/03/16 06:33:04;;;;;;;54.42;30.85;;;4.80;99.90;;;;;;5066054;28;20048;-61
2022/03/16 06:35:32;;;;;;;51.47;31.00;;;4.90;99.90;;;;;;5085748;28;20396;-60
2022/03/16 06:37:59;;;;;;;47.75;30.10;;;4.90;99.90;;;;;;5083070;28;20052;-62
2022/03/16 06:40:26;;;;;;;47.25;28.83;;;5.00;99.90;;;;;;5061975;28;20114;-61
2022/03/16 06:42:56;;;;;;;47.63;30.27;;;5.10;99.90;;;;;;5087199;28;20449;-63
2022/03/16 06:45:24;;;;;;;41.88;27.75;;;5.10;99.90;;;;;;5082784;28;20040;-62
2022/03/16 06:47:54;;;;;;;46.17;28.60;;;5.20;99.90;;;;;;5083830;28;20040;-61
2022/03/16 06:50:22;;;;;;;48.92;29.35;;;5.30;99.90;;;;;;5069120;28;20564;-62
2022/03/16 06:52:49;;;;;;;45.97;29.05;;;5.30;99.90;;;;;;5084059;28;20487;-61
2022/03/16 06:55:16;;;;;;;47.45;28.45;;;5.30;99.90;;;;;;5084661;28;20105;-61
2022/03/16 06:57:43;;;;;;;46.50;27.73;;;5.40;99.90;;;;;;5083404;28;20055;-61
2022/03/16 07:00:14;;;;;;;46.53;28.83;;;5.50;99.90;;;;;;5069944;28;20481;-61
2022/03/16 07:02:55;;;;;;;47.80;27.77;;;5.50;99.90;;;;;;5085283;28;20067;-61
2022/03/16 07:05:25;;;;;;;42.33;28.02;;;5.50;99.90;;;;;;5084349;28;20415;-61
2022/03/16 07:07:52;;;;;;;48.13;27.17;;;5.60;99.90;;;;;;5067362;28;20380;-61
2022/03/16 07:10:20;;;;;;;39.13;25.33;;;5.60;99.90;;;;;;5080535;28;20305;-61
2022/03/16 07:12:46;;;;;;;42.45;26.65;;;5.70;99.90;;;;;;5084525;28;20048;-62
2022/03/16 07:15:15;;;;;;;44.25;26.80;;;5.70;99.90;;;;;;5064795;28;20040;-61
2022/03/16 07:17:42;;;;;;;43.50;24.95;;;5.80;99.90;;;;;;5082694;28;20051;-62
2022/03/16 07:20:10;;;;;;;44.70;25.92;;;5.80;99.90;;;;;;5070062;28;20708;-61
2022/03/16 07:22:37;;;;;;;46.13;26.45;;;5.90;99.90;;;;;;5066043;28;20040;-62
2022/03/16 07:25:05;;;;;;;42.85;25.63;;;6.00;99.90;;;;;;5086682;28;20143;-62
2022/03/16 07:27:31;;;;;;;48.75;28.15;;;6.10;99.90;;;;;;5086628;28;20048;-62
2022/03/16 07:29:58;;;;;;;44.55;25.98;;;6.20;99.90;;;;;;5051045;28;20083;-62
2022/03/16 07:32:26;;;;;;;41.63;25.70;;;6.40;99.90;;;;;;5092219;28;20048;-63
2022/03/16 07:34:53;;;;;;;41.38;24.85;;;6.60;99.90;;;;;;5109159;28;20089;-62
2022/03/16 07:37:22;;;;;;;41.53;24.92;;;7.00;99.90;;;;;;5093922;28;20055;-62
2022/03/16 07:39:49;;;;;;;34.65;22.33;;;7.20;99.90;;;;;;5106987;28;20043;-60
2022/03/16 07:42:16;;;;;;;37.45;24.50;;;7.30;99.90;;;;;;5092069;28;20048;-63
2022/03/16 07:44:43;;;;;;;39.40;23.85;;;7.30;99.90;;;;;;5074919;28;20055;-63
2022/03/16 07:47:10;;;;;;;37.40;23.38;;;7.40;99.90;;;;;;5095877;28;20052;-62
2022/03/16 07:49:38;;;;;;;38.20;23.13;;;7.50;99.90;;;;;;5095650;28;20055;-62
2022/03/16 07:52:06;;;;;;;35.63;21.73;;;7.70;99.90;;;;;;5091858;28;20376;-63
2022/03/16 07:54:32;;;;;;;34.08;21.45;;;7.90;99.90;;;;;;5066324;28;20052;-63
2022/03/16 07:56:59;;;;;;;33.63;23.65;;;8.00;99.90;;;;;;5079295;28;20071;-64
2022/03/16 07:59:26;;;;;;;39.97;21.92;;;8.20;99.90;;;;;;5056865;28;20086;-62
2022/03/16 08:01:53;;;;;;;32.10;20.48;;;8.40;99.90;;;;;;5056937;28;20537;-62
2022/03/16 08:04:20;;;;;;;37.95;21.92;;;8.70;99.90;;;;;;5073592;28;20423;-63
2022/03/16 08:06:48;;;;;;;35.30;21.60;;;8.90;99.90;;;;;;5061546;28;20098;-62
2022/03/16 08:09:16;;;;;;;33.95;21.65;;;9.20;99.90;;;;;;5065051;28;20056;-62
2022/03/16 08:11:43;;;;;;;32.67;21.73;;;9.50;99.90;;;;;;5084647;28;20059;-62
2022/03/16 08:14:10;;;;;;;32.30;20.83;;;9.90;99.90;;;;;;5070519;28;20513;-63
2022/03/16 08:16:36;;;;;;;28.92;19.77;;;10.20;99.90;;;;;;5075584;28;20044;-62
2022/03/16 08:19:03;;;;;;;31.58;20.65;;;10.40;99.90;;;;;;5092457;28;20044;-62
2022/03/16 08:21:30;;;;;;;33.88;19.92;;;10.50;99.90;;;;;;5074892;28;20055;-62
2022/03/16 08:23:58;;;;;;;30.30;20.77;;;10.70;99.90;;;;;;5094842;28;20059;-62
2022/03/16 08:26:25;;;;;;;30.55;20.15;;;11.00;99.90;;;;;;5114493;28;20449;-63
2022/03/16 08:28:52;;;;;;;25.55;19.10;;;11.20;99.90;;;;;;5096185;28;20090;-63
2022/03/16 08:31:19;;;;;;;27.48;18.63;;;11.30;99.90;;;;;;5076555;28;20105;-63
2022/03/16 08:33:48;;;;;;;27.33;18.73;;;11.80;99.90;;;;;;5076248;28;20101;-63
2022/03/16 08:36:15;;;;;;;25.00;18.23;;;12.20;99.90;;;;;;5076706;28;20091;-62
2022/03/16 08:38:42;;;;;;;27.67;18.05;;;12.90;99.90;;;;;;5094589;28;20052;-63
2022/03/16 08:41:11;;;;;;;27.92;19.05;;;13.50;99.90;;;;;;5075669;28;20040;-63
2022/03/16 08:43:38;;;;;;;23.90;16.48;;;14.00;99.90;;;;;;5094555;28;20052;-63
2022/03/16 08:46:05;;;;;;;27.00;17.52;;;14.80;99.90;;;;;;5094427;28;20048;-62
2022/03/16 08:48:33;;;;;;;23.60;17.20;;;15.20;99.90;;;;;;5075543;28;20055;-62
2022/03/16 08:51:01;;;;;;;23.65;17.88;;;15.50;99.90;;;;;;5094070;28;20495;-63
2022/03/16 08:53:28;;;;;;;23.10;16.27;;;15.70;99.90;;;;;;5075768;28;20052;-63
2022/03/16 08:55:55;;;;;;;24.23;17.35;;;15.90;99.90;;;;;;5072337;28;20052;-63
2022/03/16 08:58:23;;;;;;;21.35;15.85;;;15.80;99.90;;;;;;5073932;28;20044;-63
2022/03/16 09:00:50;;;;;;;24.00;16.85;;;16.20;99.90;;;;;;5073452;28;20048;-64
2022/03/16 09:03:17;;;;;;;26.88;16.65;;;17.10;99.90;;;;;;5074137;28;20052;-64
2022/03/16 09:05:44;;;;;;;23.40;16.48;;;17.30;99.90;;;;;;5056167;28;20056;-64
2022/03/16 09:08:11;;;;;;;20.33;15.30;;;17.60;99.50;;;;;;5060454;28;20044;-63
2022/03/16 09:10:38;;;;;;;20.35;15.32;;;18.20;98.90;;;;;;5076132;28;20048;-64
2022/03/16 09:13:05;;;;;;;21.63;16.48;;;18.50;96.50;;;;;;5094199;28;20040;-64
2022/03/16 09:15:33;;;;;;;19.63;14.75;;;18.60;90.90;;;;;;5093557;28;20075;-64
2022/03/16 09:18:00;;;;;;;20.83;15.55;;;18.90;92.00;;;;;;5093841;28;20051;-67
2022/03/16 09:20:28;;;;;;;21.58;15.60;;;19.50;92.70;;;;;;5058063;28;20048;-73
2022/03/16 09:22:55;;;;;;;25.13;16.77;;;20.00;91.90;;;;;;5084711;28;20146;-73
2022/03/16 09:25:25;;;;;;;23.05;17.13;;;20.20;89.40;;;;;;5088765;28;20455;-73
2022/03/16 09:27:52;;;;;;;20.95;16.80;;;20.70;89.40;;;;;;5088438;28;20040;-73
2022/03/16 09:30:21;;;;;;;23.35;17.50;;;20.40;84.10;;;;;;5085290;28;20101;-72
2022/03/16 09:32:49;;;;;;;25.27;17.95;;;20.30;84.90;;;;;;5084762;28;20126;-73
2022/03/16 09:35:16;;;;;;;25.63;17.10;;;20.00;85.50;;;;;;5065262;28;20055;-72
2022/03/16 09:37:43;;;;;;;24.15;16.95;;;19.30;87.20;;;;;;5089635;28;20059;-72
2022/03/16 09:40:11;;;;;;;23.92;17.13;;;18.80;89.10;;;;;;5086869;28;20058;-73
2022/03/16 09:42:39;;;;;;;25.95;16.88;;;18.40;90.50;;;;;;5084367;28;20044;-73
2022/03/16 09:45:10;;;;;;;22.42;16.52;;;17.90;86.30;;;;;;5066786;28;20480;-73
2022/03/16 09:47:38;;;;;;;21.25;15.57;;;17.90;90.30;;;;;;5073158;28;20047;-72
2022/03/16 09:50:09;;;;;;;21.88;15.68;;;18.30;90.20;;;;;;5085305;28;20040;-73
2022/03/16 09:52:36;;;;;;;20.52;15.63;;;19.00;85.80;;;;;;5085175;28;20055;-73
2022/03/16 09:55:06;;;;;;;17.85;13.43;;;19.60;86.10;;;;;;5089168;28;20412;-73
2022/03/16 09:57:33;;;;;;;19.77;14.10;;;20.00;82.60;;;;;;5082821;28;20467;-73
2022/03/16 10:00:00;;;;;;;19.75;13.52;;;20.00;80.80;;;;;;5064888;28;20040;-75
2022/03/16 10:02:28;;;;;;;19.55;13.45;;;20.00;80.60;;;;;;5073669;28;20076;-75
2022/03/16 10:04:55;;;;;;;15.60;11.52;;;20.30;79.20;;;;;;5070472;28;20044;-74
2022/03/16 10:07:29;;;;;;;16.00;12.55;;;20.80;77.60;;;;;;5065821;28;20118;-76
2022/03/16 10:15:26;;;;;;;18.27;12.38;;;21.30;74.00;;;;;;5068042;28;20044;-72
2022/03/16 10:17:59;;;;;;;21.17;12.55;;;21.60;73.90;;;;;;5088682;28;20040;-72
2022/03/16 10:20:28;;;;;;;14.98;11.82;;;22.00;71.80;;;;;;5086238;28;20092;-72
2022/03/16 10:23:02;;;;;;;16.27;11.48;;;22.20;71.10;;;;;;5063913;28;20049;-72
2022/03/16 10:25:32;;;;;;;16.80;11.75;;;21.80;68.70;;;;;;5091476;28;20389;-74
2022/03/16 10:28:12;;;;;;;14.40;10.52;;;21.80;69.40;;;;;;5088673;28;20117;-73
2022/03/16 10:30:40;;;;;;;14.13;10.60;;;21.90;67.70;;;;;;5068894;28;20052;-74
2022/03/16 10:33:07;;;;;;;14.68;10.73;;;21.90;68.30;;;;;;5088021;28;20066;-73
2022/03/16 10:35:34;;;;;;;13.85;9.80;;;21.70;68.60;;;;;;5065856;28;20407;-73
2022/03/16 10:38:10;;;;;;;13.40;9.90;;;21.30;68.80;;;;;;5082789;28;20086;-72
2022/03/16 10:40:37;;;;;;;15.38;10.80;;;21.40;67.00;;;;;;5082088;28;20414;-73
2022/03/16 10:49:00;;;;;;;13.73;10.75;;;20.90;68.60;;;;;;5085454;28;20456;-73
2022/03/16 10:51:27;;;;;;;13.65;10.15;;;20.20;69.00;;;;;;5084695;28;20059;-73
2022/03/16 10:53:56;;;;;;;12.77;9.82;;;20.00;70.30;;;;;;5083146;28;20109;-73
2022/03/16 10:56:24;;;;;;;16.55;10.50;;;19.70;70.40;;;;;;5083406;28;20050;-73
2022/03/16 10:58:53;;;;;;;13.73;10.30;;;19.30;71.90;;;;;;5082339;28;20173;-73
2022/03/16 11:01:20;;;;;;;15.30;10.75;;;19.20;72.10;;;;;;5069876;28;20194;-73
2022/03/16 11:03:49;;;;;;;13.45;9.13;;;19.40;72.40;;;;;;5085689;28;20040;-73
2022/03/16 11:06:18;;;;;;;12.95;8.18;;;19.50;71.20;;;;;;5065296;28;20080;-73
2022/03/16 11:08:45;;;;;;;11.00;8.02;;;19.60;69.50;;;;;;5064212;28;20044;-73
2022/03/16 11:14:01;;;;;;;11.43;7.85;;;19.90;69.20;;;;;;5080996;28;20097;-72
2022/03/16 11:16:29;;;;;;;11.65;8.70;;;19.80;67.90;;;;;;5085168;28;20040;-73
2022/03/16 11:18:57;;;;;;;10.98;7.90;;;19.50;67.30;;;;;;5091378;28;20055;-73
2022/03/16 11:21:38;;;;;;;10.63;7.88;;;19.70;67.40;;;;;;5070082;28;20139;-73
2022/03/16 11:24:17;;;;;;;;;;;19.30;66.20;;;;;;5070782;28;20060;-73
2022/03/16 11:27:16;;;;;;;12.50;9.30;;;19.10;68.20;;;;;;5087990;28;19931;-72
2022/03/16 11:29:50;;;;;;;13.43;8.93;;;19.80;67.50;;;;;;5070880;28;20044;-72
2022/03/16 11:32:18;;;;;;;15.98;10.77;;;20.00;66.80;;;;;;5087228;28;20052;-73
2022/03/16 11:34:54;;;;;;;14.07;10.07;;;20.40;67.10;;;;;;5086811;28;20086;-73
2022/03/16 11:37:32;;;;;;;12.55;8.73;;;20.70;67.60;;;;;;5087500;28;20044;-73
2022/03/16 11:40:09;;;;;;;12.88;9.55;;;20.60;66.50;;;;;;5087300;28;20450;-73
2022/03/16 11:42:39;;;;;;;14.18;9.70;;;20.50;66.40;;;;;;5060471;28;20117;-76
2022/03/16 11:45:35;;;;;;;14.97;9.43;;;20.70;66.50;;;;;;5067112;28;20060;-73
2022/03/16 11:48:36;;;;;;;14.93;9.38;;;21.20;64.30;;;;;;5093909;28;20090;-73
2022/03/16 11:51:25;;;;;;;12.85;9.68;;;21.60;64.40;;;;;;5071051;28;20040;-74
2022/03/16 11:54:08;;;;;;;11.93;8.73;;;21.90;63.30;;;;;;5064334;28;20060;-74
2022/03/16 11:56:52;;;;;;;13.57;10.40;;;21.80;62.20;;;;;;5071869;28;20514;-73
2022/03/16 11:59:35;;;;;;;14.48;9.98;;;22.00;62.30;;;;;;5077584;28;20490;-73
2022/03/16 12:02:29;;;;;;;13.13;9.35;;;22.40;62.30;;;;;;5094243;28;20051;-73
2022/03/16 12:05:02;;;;;;;14.10;9.30;;;22.50;60.70;;;;;;5019535;28;20105;-73
2022/03/16 12:07:35;;;;;;;12.35;9.35;;;22.60;61.00;;;;;;5077616;28;20052;-73
2022/03/16 12:10:10;;;;;;;14.60;9.82;;;22.50;61.70;;;;;;5077453;28;20097;-74
2022/03/16 12:12:54;;;;;;;12.10;8.40;;;23.20;61.20;;;;;;5094985;28;20396;-73
2022/03/16 12:15:33;;;;;;;13.25;9.50;;;23.40;60.60;;;;;;5093749;28;20044;-74
2022/03/16 12:18:39;;;;;;;11.57;9.60;;;23.50;60.00;;;;;;5076907;28;20480;-73
2022/03/16 12:21:10;;;;;;;15.25;8.95;;;23.60;58.30;;;;;;5095286;28;20048;-73
2022/03/16 12:29:48;;;;;;;12.95;7.75;;;22.80;58.80;;;;;;5054983;28;20190;-74
2022/03/16 12:32:23;;;;;;;12.10;7.80;;;22.70;58.30;;;;;;5054326;28;20053;-74
2022/03/16 12:34:52;;;;;;;11.10;7.90;;;22.90;58.60;;;;;;5054598;28;20151;-73
2022/03/16 12:37:22;;;;;;;13.20;8.23;;;23.30;58.90;;;;;;5036903;28;20065;-73
2022/03/16 12:39:49;;;;;;;12.23;8.80;;;23.50;58.50;;;;;;5052740;28;20041;-73
2022/03/16 12:42:33;;;;;;;11.40;8.43;;;23.60;58.10;;;;;;5071682;28;20056;-73
2022/03/16 12:45:09;;;;;;;11.32;8.15;;;23.40;57.10;;;;;;5074575;28;20381;-74
2022/03/16 12:47:43;;;;;;;12.65;8.20;;;23.90;56.10;;;;;;5073940;28;20488;-74
2022/03/16 12:50:14;;;;;;;10.68;8.25;;;23.70;56.40;;;;;;5074909;28;20113;-73
2022/03/16 12:52:43;;;;;;;12.23;8.18;;;23.40;56.70;;;;;;5073637;28;20049;-74
2022/03/16 12:55:12;;;;;;;12.70;8.80;;;23.10;56.90;;;;;;5074748;28;20055;-72
2022/03/16 12:57:39;;;;;;;14.00;9.27;;;22.90;57.80;;;;;;5073874;28;20058;-73
2022/03/16 13:00:12;;;;;;;11.27;7.90;;;22.80;57.90;;;;;;5055381;28;20048;-73
2022/03/16 13:02:42;;;;;;;12.98;8.50;;;23.00;57.50;;;;;;5056278;28;20048;-73